Valle Toledo, Valles Caldera, New Mexico Weather observations

Data are for 10 minute period ending at time listed.
 Day   Time   Solar   Ave.   Ave.  Ave.  Vector  Max.   Baro.   Total    
  of    of     Rad.   Air    Rel.  Wind   Wind   Wind  Press.  Precip.   
Year   Day            Temp.  Hum.  Speed  Dir.   Gust                    
2016   (MST)  Kw/m2    F      %     mph   deg.    mph    mb.     in.     
-------------------------------------------------------------------------
 124    2:30   0.00   29.5    81    2.9    42     4.2   732.2    0.00 
 124    2:40   0.00   29.5    80    2.3    37     4.2   732.2    0.00 
 124    2:50   0.00   29.3    80    1.9    36     3.0   732.2    0.00 
 124    3:00   0.00   28.8    81    2.6    32     3.6   732.2    0.00 
 124    3:10   0.00   28.5    82    2.8    41     4.2   732.2    0.00 
 124    3:20   0.00   28.4    82    3.0    33     4.8   732.2    0.00 
 124    3:30   0.00   28.3    83    1.9    28     3.0   732.1    0.00 
 124    3:40   0.00   28.0    84    3.1    35     4.2   732.1    0.00 
 124    3:50   0.00   28.4    83    3.5    37     4.2   732.1    0.00 
 124    4:00   0.00   29.0    81    1.2    39     4.2   732.1    0.00 
 124    4:10   0.00   28.4    81    0.4    44     2.4   732.0    0.00 
 124    4:20   0.00   27.8    83    1.4    47     3.0   732.0    0.00 
 124    4:30   0.00   27.8    84    1.5    59     3.0   732.0    0.00 
 124    4:40   0.00   28.4    84    1.9   116     3.0   732.0    0.00 
 124    4:50   0.00   27.8    87    0.7    28     3.0   732.1    0.00 
 124    5:00   0.00   27.6    86    3.5    24     4.8   732.0    0.00 
 124    5:10   0.00   28.0    83    2.4    63     4.2   732.1    0.00 
 124    5:20   0.01   28.6    80    2.0   336     4.2   732.2    0.00 
 124    5:30   0.01   27.7    85    1.6   131     3.0   732.3    0.00 
 124    5:40   0.01   27.1    87    1.1    36     3.0   732.4    0.00 
 124    5:50   0.01   27.1    87    1.2   109     3.6   732.5    0.00 
 124    6:00   0.01   27.5    86    1.5    39     3.0   732.6    0.00 
 124    6:10   0.02   27.8    84    1.6    53     2.4   732.6    0.00 
 124    6:20   0.09   28.7    81    0.2    72     2.4   732.6    0.00 
 124    6:30   0.22   30.2    78    0.0     0     0.0   732.7    0.00 
 124    6:40   0.25   31.8    76    0.0   213     1.8   732.8    0.00 
 124    6:50   0.28   33.7    73    0.0   158     1.2   732.8    0.00 
 124    7:00   0.30   36.1    69    0.0     0     0.0   732.8    0.00 
 124    7:10   0.34   36.6    67    0.9   217     3.6   732.8    0.00 
 124    7:20   0.37   36.4    70    0.2   153     3.0   732.9    0.00 
 124    7:30   0.40   38.8    65    0.3   143     3.6   733.1    0.00 
 124    7:40   0.44   40.1    61    2.6   158     4.8   733.1    0.00 
 124    7:50   0.47   41.5    59    2.0   180     4.2   733.0    0.00 
 124    8:00   0.50   42.4    58    3.6   236     6.6   733.0    0.00 
 124    8:10   0.53   42.6    60    3.6   260     6.0   733.0    0.00 
 124    8:20   0.57   44.2    53    2.1   234     7.8   733.0    0.00 
 124    8:30   0.60   45.0    48    5.0   304     8.4   732.9    0.00 
 124    8:40   0.63   47.6    42    4.1   321     9.6   732.9    0.00 
 124    8:50   0.66   48.3    39    6.0   345    12.5   733.0    0.00 
 124    9:00   0.69   49.0    37    4.9     9     9.0   733.1    0.00 
 124    9:10   0.73   50.6    35    5.2   359     9.6   733.2    0.00 
 124    9:20   0.77   50.5    38    5.4   344     9.6   733.3    0.00 
 124    9:30   0.67   50.5    35    6.4   332    10.8   733.4    0.00 
 124    9:40   0.65   50.5    35    6.2   347    10.8   733.5    0.00 
 124    9:50   0.41   49.7    33    5.8    10    12.5   733.5    0.00 
 124   10:00   0.51   48.4    37    5.8   339    11.3   733.7    0.00 
 124   10:10   0.89   51.4    33    7.2   352    13.1   733.7    0.00 
 124   10:20   0.47   50.7    32    4.2     9     9.0   733.8    0.00 
 124   10:30   0.69   51.3    32    7.3   316    14.9   733.9    0.00 
 124   10:40   0.20   48.6    32    4.7   348    11.9   734.0    0.00 
 124   10:50   0.95   49.7    30    4.2   318    10.8   733.9    0.00 
 124   11:00   0.91   52.1    28    4.0     9    11.9   733.8    0.00 
 124   11:10   0.92   52.1    29    5.0    54    10.2   733.8    0.00 
 124   11:20   0.92   52.1    29    6.3   318    13.1   733.8    0.00 
 124   11:30   0.95   52.5    28    4.9    94    10.8   733.8    0.00 
 124   11:40   0.30   52.8    29    5.6   316    12.5   733.8    0.00 
 124   11:50   0.78   50.8    29    5.5   322    10.2   733.8    0.00 
 124   12:00   1.02   53.2    29    5.0    25    10.2   733.8    0.00 
 124   12:10   0.41   52.9    28    7.9   310    13.7   733.8    0.00 
 124   12:20   0.90   52.2    28    5.4   299    10.2   733.8    0.00 
 124   12:30   1.01   54.0    28    4.3   228    10.2   733.8    0.00 
 124   12:40   0.20   52.9    27    6.6   321    14.9   733.8    0.01 
 124   12:50   0.66   51.5    29    4.7   303     8.4   733.8    0.00 
 124   13:00   0.46   52.7    28    4.7   210     9.0   733.8    0.00 
 124   13:10   0.48   51.2    28    3.5   175     6.6   733.8    0.00 
 124   13:20   0.95   55.3    27    5.7   310    10.8   733.8    0.00 
 124   13:30   0.29   54.6    26    7.6   302    10.8   733.8    0.00 
 124   13:40   0.33   52.9    26    4.4   344     9.6   733.8    0.00 
 124   13:50   0.57   55.0    25    2.7   280     5.4   733.8    0.00 
 124   14:00   0.96   54.9    25    4.0   178     7.2   733.8    0.00 
 124   14:10   0.50   56.1    24    3.6    85     7.2   733.9    0.00 
 124   14:20   0.41   54.2    28    4.3    96     9.6   733.9    0.00 
 124   14:30   0.21   52.3    28    4.5   109     9.0   733.9    0.00 
 124   14:40   0.16   51.6    34    5.3   153    11.9   733.9    0.00 
 124   14:50   0.17   51.0    37    5.2   145    10.2   733.9    0.00 
 124   15:00   0.21   50.5    38    5.9   163     9.6   733.9    0.00 
 124   15:10   0.17   50.1    39    5.2   168    10.2   733.8    0.00 
 124   15:20   0.36   49.8    40    5.0   171     9.6   733.8    0.00 
 124   15:30   0.43   52.5    36    6.3   158    11.9   733.9    0.00 
 124   15:40   0.14   50.8    36    3.2   156     7.8   734.0    0.00 
 124   15:50   0.16   50.7    36    3.7   179     7.2   734.0    0.00 
 124   16:00   0.54   52.5    36    3.4   183     7.2   734.1    0.00 
 124   16:10   0.59   55.0    32    5.4   222    10.2   734.1    0.00 
 124   16:20   0.38   53.8    33    4.7   227     9.0   734.1    0.00 
 124   16:30   0.28   52.9    33    4.6   269     9.6   734.3    0.00 
 124   16:40   0.43   54.0    31    4.1   271     7.8   734.3    0.00 
 124   16:50   0.17   53.2    32    4.1   256     6.6   734.3    0.00 
 124   17:00   0.18   52.9    32    2.3   279     4.2   734.3    0.01 
 124   17:10   0.05   52.1    34    1.6   258     3.6   734.3    0.00 
 124   17:20   0.07   50.8    37    1.1   292     3.6   734.3    0.00 
 124   17:30   0.06   50.4    37    2.0   338     3.6   734.3    0.00 
 124   17:40   0.08   50.3    38    0.5   354     3.0   734.3    0.00 
 124   17:50   0.14   51.0    37    2.6   328     4.2   734.3    0.00 
 124   18:00   0.07   51.8    34    1.8   325     4.2   734.4    0.00 
 124   18:10   0.05   51.0    35    1.7    21     3.0   734.5    0.00 
 124   18:20   0.11   51.5    36    2.1    16     3.6   734.5    0.00 
 124   18:30   0.07   52.1    34    1.4    53     3.0   734.6    0.00 
 124   18:40   0.03   51.0    34    2.5    59     5.4   734.8    0.00 
 124   18:50   0.01   48.6    32    3.0    57     4.8   734.9    0.00 
 124   19:00   0.01   47.2    34    2.6    51     4.2   734.9    0.00 
 124   19:10   0.00   45.3    40    2.9    50     4.8   734.8    0.00 
 124   19:20   0.00   44.3    41    3.0    54     5.4   734.8    0.00 
 124   19:30   0.00   45.3    34    2.2    67     4.8   734.9    0.00 
 124   19:40   0.00   45.1    33    0.8    62     3.6   735.1    0.00 
 124   19:50   0.00   43.7    37    1.7    43     3.6   735.1    0.00 
 124   20:00   0.00   42.3    41    2.2    55     4.2   735.2    0.00 
 124   20:10   0.00   41.6    42    2.1    50     3.6   735.4    0.00 
 124   20:20   0.00   41.3    41    1.4    70     3.6   735.4    0.00 
 124   20:30   0.00   40.9    42    2.0    48     4.2   735.6    0.00 
 124   20:40   0.00   39.5    43    3.5    40     4.8   735.7    0.00 
 124   20:50   0.00   38.7    46    3.3    43     4.8   735.8    0.00 
 124   21:00   0.00   37.9    45    2.6    27     4.2   735.9    0.00 
 124   21:10   0.00   37.7    48    2.7    67     4.8   736.0    0.00 
 124   21:20   0.00   37.3    48    3.4    29     6.0   736.1    0.00 
 124   21:30   0.00   36.8    50    3.7    33     5.4   736.2    0.00 
 124   21:40   0.00   36.6    52    4.2    37     5.4   736.2    0.00 
 124   21:50   0.00   37.1    49    4.5    35     5.4   736.2    0.00 
 124   22:00   0.00   37.2    51    4.4    36     5.4   736.2    0.00 
 124   22:10   0.00   36.5    56    2.7    26     4.8   736.4    0.00 
 124   22:20   0.00   35.9    60    1.5    43     3.6   736.5    0.00 
 124   22:30   0.00   36.0    66    4.5    37     6.0   736.5    0.00 
 124   22:40   0.00   35.7    68    3.3    40     4.8   736.5    0.00 
 124   22:50   0.00   35.2    70    3.8    32     4.8   736.5    0.00 
 124   23:00   0.00   35.3    70    1.5    36     4.2   736.6    0.00 
 124   23:10   0.00   35.3    71    3.6    38     4.8   736.7    0.00 
 124   23:20   0.00   34.8    72    1.8    21     4.2   736.8    0.00 
 124   23:30   0.00   34.8    73    4.2    33     5.4   736.8    0.00 
 124   23:40   0.00   35.0    72    3.1    24     5.4   736.9    0.00 
 124   23:50   0.00   34.8    73    5.0    34     6.0   736.9    0.00 
 125    0:00   0.00   34.8    73    2.3    36     5.4   737.0    0.00 
 125    0:10   0.00   34.4    74    4.4    35     5.4   737.0    0.00 
 125    0:20   0.00   34.1    74    1.8    14     4.8   737.0    0.00 
 125    0:30   0.00   33.6    76    3.4    31     5.4   737.0    0.00 
 125    0:40   0.00   34.1    75    3.4    32     5.4   736.9    0.00 
 125    0:50   0.00   34.3    74    0.8    41     3.0   736.9    0.00 
 125    1:00   0.00   34.2    74    3.6    34     4.8   736.9    0.00 
 125    1:10   0.00   33.7    75    0.5    40     2.4   736.9    0.00 
 125    1:20   0.00   33.5    75    1.9    39     3.0   737.0    0.00 
 125    1:30   0.00   33.5    76    2.7    44     3.6   737.0    0.00 
 125    1:40   0.00   33.8    74    2.9    33     4.8   736.9    0.00 
 125    1:50   0.00   33.8    74    1.1    42     3.6   736.9    0.00 
 125    2:00   0.00   33.3    75    1.6    35     3.6   737.0    0.00 
 125    2:10   0.00   33.2    75    2.9    39     4.2   737.1    0.00 
 125    2:20   0.00   33.5    74    2.9    42     4.8   737.1    0.00 

Return to Valle Toledo, Valles Caldera graphs page.


Western Regional Climate Center,wrcc@dri.edu